Time;durP1;ratioP1;P1;durP2;ratioP2;P2;SDS_P1;SDS_P2;PMS_P1;PMS_P2;Temp;Humidity;BMP_temperature;BMP_pressure;BME280_temperature;BME280_humidity;BME280_pressure;Samples;Min_cycle;Max_cycle;Signal;HPM_P1;HPM_P2
2021/08/17 00:01:35;;;;;;;6.72;2.22;;;13.00;99.90;;;;;;4969779;28;20035;-49
2021/08/17 00:04:01;;;;;;;8.82;1.95;;;13.00;99.90;;;;;;4969752;28;20027;-49
2021/08/17 00:06:26;;;;;;;7.70;2.13;;;13.00;99.90;;;;;;4968679;28;20614;-53
2021/08/17 00:08:52;;;;;;;6.65;1.80;;;13.00;99.90;;;;;;4969591;28;20022;-50
2021/08/17 00:11:17;;;;;;;12.10;2.67;;;13.10;99.90;;;;;;4969813;28;20030;-49
2021/08/17 00:13:43;;;;;;;13.10;2.47;;;13.00;99.90;;;;;;4969602;28;20481;-50
2021/08/17 00:16:09;;;;;;;7.45;1.77;;;13.10;99.90;;;;;;4969662;28;20415;-50
2021/08/17 00:18:34;;;;;;;9.55;2.67;;;13.10;99.90;;;;;;4969263;28;20110;-50
2021/08/17 00:21:00;;;;;;;14.50;2.00;;;13.10;99.90;;;;;;4969588;28;20504;-50
2021/08/17 00:23:26;;;;;;;7.20;1.45;;;13.10;99.90;;;;;;4969537;28;20572;-49
2021/08/17 00:25:51;;;;;;;4.22;1.48;;;13.10;99.90;;;;;;4968879;28;20058;-48
2021/08/17 00:28:24;;;;;;;7.40;2.13;;;13.10;99.90;;;;;;4963691;28;20030;-48
2021/08/17 00:30:50;;;;;;;7.55;1.40;;;13.20;99.90;;;;;;4966348;28;20023;-52
2021/08/17 00:33:16;;;;;;;12.27;2.00;;;13.10;99.90;;;;;;4965935;28;20027;-50
2021/08/17 00:35:41;;;;;;;5.55;1.48;;;13.10;99.90;;;;;;4968179;28;20023;-52
2021/08/17 00:38:07;;;;;;;7.97;1.90;;;13.10;99.90;;;;;;4969212;28;20031;-49
2021/08/17 00:40:33;;;;;;;7.47;2.55;;;13.10;99.90;;;;;;4969545;28;20019;-49
2021/08/17 00:42:59;;;;;;;7.75;2.38;;;13.20;99.90;;;;;;4968832;28;20508;-48
2021/08/17 00:45:26;;;;;;;9.93;1.88;;;13.10;99.90;;;;;;4967956;28;20030;-51
2021/08/17 00:47:56;;;;;;;7.65;1.40;;;13.10;99.90;;;;;;4969215;28;20034;-51
2021/08/17 00:50:23;;;;;;;6.15;1.50;;;13.20;99.90;;;;;;4969547;28;20026;-48
2021/08/17 00:52:50;;;;;;;5.00;1.52;;;13.10;99.90;;;;;;4969040;28;20389;-53
2021/08/17 00:55:17;;;;;;;5.55;1.10;;;13.10;99.90;;;;;;4967677;28;20130;-49
2021/08/17 00:57:44;;;;;;;2.65;1.15;;;13.10;99.90;;;;;;4968679;28;20031;-48
2021/08/17 01:00:11;;;;;;;7.50;2.05;;;13.20;99.90;;;;;;4967025;28;20018;-50
2021/08/17 01:02:37;;;;;;;5.95;1.38;;;13.10;99.90;;;;;;4966942;28;20031;-52
2021/08/17 01:05:05;;;;;;;7.60;1.58;;;13.20;99.90;;;;;;4966848;28;20031;-50
2021/08/17 01:07:31;;;;;;;4.03;1.40;;;13.10;99.90;;;;;;4968881;28;20659;-49
2021/08/17 01:09:56;;;;;;;5.50;1.25;;;13.10;99.90;;;;;;4969057;28;20102;-49
2021/08/17 01:12:22;;;;;;;4.25;1.20;;;13.10;99.90;;;;;;4969083;28;20101;-51
2021/08/17 01:14:48;;;;;;;6.03;1.35;;;13.10;99.90;;;;;;4969207;28;20055;-53
2021/08/17 01:17:16;;;;;;;5.50;1.05;;;13.10;99.90;;;;;;4970273;28;20098;-49
2021/08/17 01:19:41;;;;;;;4.72;1.23;;;13.10;99.90;;;;;;4971333;28;20035;-48
2021/08/17 01:22:07;;;;;;;8.40;1.75;;;13.10;99.90;;;;;;4955421;28;20030;-49
2021/08/17 01:24:32;;;;;;;6.63;1.20;;;13.10;99.90;;;;;;4972742;28;20117;-49
2021/08/17 01:26:58;;;;;;;3.78;1.23;;;13.20;99.90;;;;;;4972647;28;20026;-51
2021/08/17 01:29:24;;;;;;;10.02;1.70;;;13.20;99.90;;;;;;4972458;28;20023;-50
2021/08/17 01:31:51;;;;;;;3.30;1.83;;;13.20;99.90;;;;;;4972123;28;20437;-53
2021/08/17 01:34:18;;;;;;;5.35;1.42;;;13.20;99.90;;;;;;4972747;28;20011;-51
2021/08/17 01:36:43;;;;;;;3.78;1.20;;;13.20;99.90;;;;;;4970687;28;20050;-50
2021/08/17 01:39:09;;;;;;;8.20;1.70;;;13.30;99.90;;;;;;4972210;28;20114;-50
2021/08/17 01:41:35;;;;;;;4.68;1.25;;;13.30;99.90;;;;;;4971007;28;20081;-49
2021/08/17 01:44:04;;;;;;;2.38;1.30;;;13.30;99.90;;;;;;4972098;28;20023;-49
2021/08/17 01:46:30;;;;;;;4.20;1.38;;;13.20;99.90;;;;;;4965857;28;20058;-50
2021/08/17 01:48:55;;;;;;;2.42;0.90;;;13.20;99.90;;;;;;4971309;28;20585;-51
2021/08/17 01:51:21;;;;;;;4.45;1.63;;;13.20;99.90;;;;;;4972081;28;20468;-50
2021/08/17 01:53:46;;;;;;;5.00;1.50;;;13.30;99.90;;;;;;4971991;28;20030;-49
2021/08/17 01:56:13;;;;;;;5.78;1.50;;;13.30;99.90;;;;;;4970119;28;20023;-50
2021/08/17 01:58:41;;;;;;;6.85;1.63;;;13.20;99.90;;;;;;4971847;28;20026;-50
2021/08/17 02:01:08;;;;;;;9.82;2.15;;;13.30;99.90;;;;;;4972126;28;20019;-49
2021/08/17 02:03:34;;;;;;;5.70;2.10;;;13.30;99.90;;;;;;4971988;28;20015;-51
2021/08/17 02:06:00;;;;;;;5.05;1.42;;;13.20;99.90;;;;;;4971344;28;20452;-49
2021/08/17 02:08:25;;;;;;;5.88;1.95;;;13.20;99.90;;;;;;4971502;28;20110;-51
2021/08/17 02:10:51;;;;;;;6.97;1.83;;;13.30;99.90;;;;;;4970575;28;20502;-48
2021/08/17 02:13:17;;;;;;;12.77;1.83;;;13.30;99.90;;;;;;4971336;28;20023;-50
2021/08/17 02:15:44;;;;;;;6.72;1.30;;;13.30;99.90;;;;;;4971470;28;20078;-51
2021/08/17 02:18:10;;;;;;;5.57;1.60;;;13.30;99.90;;;;;;4971568;28;20023;-53
2021/08/17 02:20:36;;;;;;;8.32;1.77;;;13.30;99.90;;;;;;4971568;28;20485;-50
2021/08/17 02:23:01;;;;;;;8.18;1.88;;;13.30;99.90;;;;;;4971428;28;20037;-49
2021/08/17 02:25:27;;;;;;;6.05;1.83;;;13.30;99.90;;;;;;4970523;28;20541;-50
2021/08/17 02:27:52;;;;;;;10.25;2.08;;;13.20;99.90;;;;;;4971246;28;20452;-48
2021/08/17 02:30:18;;;;;;;5.47;1.40;;;13.20;99.90;;;;;;4971084;28;20038;-52
2021/08/17 02:32:43;;;;;;;9.88;2.85;;;13.20;99.90;;;;;;4971324;28;20023;-48
2021/08/17 02:35:09;;;;;;;5.38;1.05;;;13.20;99.90;;;;;;4970647;28;20495;-48
2021/08/17 02:37:35;;;;;;;4.13;1.65;;;13.20;99.90;;;;;;4971321;28;20392;-49
2021/08/17 02:40:01;;;;;;;8.80;2.20;;;13.20;99.90;;;;;;4971206;28;20031;-49
2021/08/17 02:42:27;;;;;;;6.90;2.28;;;13.20;99.90;;;;;;4971287;28;20031;-50
2021/08/17 02:44:53;;;;;;;3.67;1.48;;;13.20;99.90;;;;;;4970904;28;20166;-48
2021/08/17 02:47:19;;;;;;;9.25;1.88;;;13.20;99.90;;;;;;4970838;28;20103;-49
2021/08/17 02:49:44;;;;;;;6.70;2.42;;;13.20;99.90;;;;;;4969849;28;20023;-51
2021/08/17 02:52:10;;;;;;;4.45;1.30;;;13.20;99.90;;;;;;4971041;28;20031;-48
2021/08/17 02:54:37;;;;;;;9.30;2.13;;;13.10;99.90;;;;;;4969726;28;20069;-51
2021/08/17 02:57:04;;;;;;;10.30;2.22;;;13.20;99.90;;;;;;4970967;28;20053;-48
2021/08/17 02:59:30;;;;;;;5.95;1.60;;;13.20;99.90;;;;;;4970684;28;20093;-52
2021/08/17 03:01:56;;;;;;;4.03;1.50;;;13.10;99.90;;;;;;4970980;28;20030;-50
2021/08/17 03:04:21;;;;;;;7.72;2.10;;;13.10;99.90;;;;;;4966037;28;20057;-50
2021/08/17 03:06:47;;;;;;;3.72;1.13;;;13.10;99.90;;;;;;4966959;28;20366;-50
2021/08/17 03:09:13;;;;;;;6.63;1.63;;;13.10;99.90;;;;;;4970696;28;20030;-49
2021/08/17 03:11:38;;;;;;;7.00;2.55;;;13.10;99.90;;;;;;4970561;28;20041;-49
2021/08/17 03:14:04;;;;;;;2.97;1.00;;;13.10;99.90;;;;;;4970747;28;20434;-50
2021/08/17 03:16:30;;;;;;;3.35;1.60;;;13.00;99.90;;;;;;4970263;28;20081;-49
2021/08/17 03:18:57;;;;;;;9.52;2.17;;;13.00;99.90;;;;;;4970410;28;20031;-50
2021/08/17 03:21:23;;;;;;;8.48;1.48;;;13.00;99.90;;;;;;4970871;28;20031;-49
2021/08/17 03:23:49;;;;;;;11.57;1.85;;;13.00;99.90;;;;;;4985766;28;20465;-49
2021/08/17 03:26:15;;;;;;;8.60;2.33;;;12.90;99.90;;;;;;4970180;28;20033;-48
2021/08/17 03:28:41;;;;;;;4.85;1.35;;;12.90;99.90;;;;;;4970345;28;20311;-50
2021/08/17 03:31:07;;;;;;;5.75;1.08;;;12.90;99.90;;;;;;4970624;28;20054;-51
2021/08/17 03:33:33;;;;;;;3.22;1.20;;;12.80;99.90;;;;;;4970628;28;20031;-50
2021/08/17 03:35:59;;;;;;;3.05;1.73;;;12.80;99.90;;;;;;4968473;28;20023;-49
2021/08/17 03:38:25;;;;;;;4.68;1.40;;;12.70;99.90;;;;;;4969948;28;20378;-49
2021/08/17 03:40:50;;;;;;;2.75;1.13;;;12.70;99.90;;;;;;4969738;28;20014;-50
2021/08/17 03:43:16;;;;;;;3.88;1.50;;;12.70;99.90;;;;;;4969868;28;20034;-48
2021/08/17 03:45:42;;;;;;;6.38;1.25;;;12.70;99.90;;;;;;4970042;28;20081;-48
2021/08/17 03:48:07;;;;;;;4.07;1.42;;;12.60;99.90;;;;;;4969682;28;20031;-50
2021/08/17 03:50:34;;;;;;;3.88;1.35;;;12.60;99.90;;;;;;4968634;28;20029;-49
2021/08/17 03:52:59;;;;;;;3.08;1.30;;;12.60;99.90;;;;;;4970128;28;20026;-48
2021/08/17 03:55:25;;;;;;;6.50;1.80;;;12.60;99.90;;;;;;4969998;28;20027;-50
2021/08/17 03:57:51;;;;;;;5.55;1.73;;;12.60;99.90;;;;;;4970404;28;20019;-52
2021/08/17 04:00:21;;;;;;;1.55;1.35;;;12.60;99.90;;;;;;4969774;28;20023;-51
2021/08/17 04:02:47;;;;;;;4.90;1.67;;;12.60;99.90;;;;;;4969954;28;20029;-49
2021/08/17 04:05:12;;;;;;;7.50;2.45;;;12.60;99.90;;;;;;4969411;28;20023;-49
2021/08/17 04:07:39;;;;;;;5.07;1.48;;;12.60;99.90;;;;;;4969911;28;20746;-50
2021/08/17 04:10:06;;;;;;;9.55;1.63;;;12.60;99.90;;;;;;4969755;28;20030;-48
2021/08/17 04:12:31;;;;;;;3.63;1.73;;;12.70;99.90;;;;;;4967920;28;20027;-51
2021/08/17 04:14:57;;;;;;;7.97;1.73;;;12.70;99.90;;;;;;4969717;28;20038;-49
2021/08/17 04:17:23;;;;;;;5.55;1.85;;;12.70;99.90;;;;;;4970113;28;20037;-48
2021/08/17 04:19:48;;;;;;;7.63;2.25;;;12.70;99.90;;;;;;4969330;28;20527;-49
2021/08/17 04:22:14;;;;;;;6.00;1.85;;;12.70;99.90;;;;;;4969773;28;20046;-50
2021/08/17 04:24:39;;;;;;;5.22;2.25;;;12.70;99.90;;;;;;4969011;28;20481;-50
2021/08/17 04:27:05;;;;;;;7.75;2.00;;;12.80;99.90;;;;;;4969377;28;20477;-48
2021/08/17 04:29:31;;;;;;;10.45;2.17;;;12.80;99.90;;;;;;4969667;28;20508;-49
2021/08/17 04:31:56;;;;;;;6.75;1.65;;;12.90;99.90;;;;;;4969838;28;20541;-48
2021/08/17 04:34:22;;;;;;;8.75;1.83;;;12.90;99.90;;;;;;4969009;28;20482;-52
2021/08/17 04:36:48;;;;;;;5.85;1.95;;;12.90;99.90;;;;;;4969100;28;20027;-49
2021/08/17 04:39:14;;;;;;;3.40;1.80;;;12.90;99.90;;;;;;4985183;23;20505;-56
2021/08/17 04:41:41;;;;;;;8.65;1.50;;;12.90;99.90;;;;;;4967223;28;20034;-52
2021/08/17 04:44:07;;;;;;;6.22;2.47;;;12.90;99.90;;;;;;4984023;28;20062;-54
2021/08/17 04:46:32;;;;;;;6.93;2.38;;;12.90;99.90;;;;;;4969392;28;20034;-48
2021/08/17 04:48:58;;;;;;;4.28;1.20;;;13.00;99.90;;;;;;4984063;28;20031;-50
2021/08/17 04:51:23;;;;;;;6.10;1.77;;;13.00;99.90;;;;;;4989192;28;20041;-49
2021/08/17 04:53:52;;;;;;;7.05;2.00;;;13.10;99.90;;;;;;4992468;28;20037;-54
2021/08/17 04:56:18;;;;;;;7.53;2.53;;;13.10;99.90;;;;;;4991129;28;20543;-53
2021/08/17 04:58:43;;;;;;;5.28;1.75;;;13.20;99.90;;;;;;4992769;28;20054;-49
2021/08/17 05:01:09;;;;;;;7.65;2.60;;;13.20;99.90;;;;;;4992524;28;20416;-49
2021/08/17 05:03:34;;;;;;;8.40;2.75;;;13.30;99.90;;;;;;4992114;28;20076;-52
2021/08/17 05:06:00;;;;;;;4.82;2.00;;;13.30;99.90;;;;;;4991825;28;20065;-53
2021/08/17 05:08:26;;;;;;;9.13;1.85;;;13.30;99.90;;;;;;4992394;28;20034;-48
2021/08/17 05:10:51;;;;;;;8.43;2.58;;;13.30;99.90;;;;;;4991825;28;20030;-49
2021/08/17 05:13:17;;;;;;;8.13;1.90;;;13.40;99.90;;;;;;4992241;28;20400;-55
2021/08/17 05:15:42;;;;;;;7.38;2.45;;;13.40;99.90;;;;;;4991886;28;20033;-55
2021/08/17 05:18:08;;;;;;;6.53;2.50;;;13.40;99.90;;;;;;4992180;28;20050;-50
2021/08/17 05:20:34;;;;;;;8.27;2.55;;;13.40;99.90;;;;;;4991097;28;20073;-49
2021/08/17 05:22:59;;;;;;;11.50;3.30;;;13.50;99.90;;;;;;4991938;28;20022;-51
2021/08/17 05:25:25;;;;;;;11.98;3.60;;;13.60;99.90;;;;;;4992053;28;20397;-55
2021/08/17 05:27:51;;;;;;;11.50;2.50;;;13.70;99.90;;;;;;4991634;28;20018;-54
2021/08/17 05:30:17;;;;;;;7.45;3.13;;;13.80;99.90;;;;;;4992002;28;20027;-50
2021/08/17 05:32:43;;;;;;;7.85;2.67;;;13.90;99.90;;;;;;4991818;28;20029;-52
2021/08/17 05:35:09;;;;;;;6.68;2.75;;;13.90;99.90;;;;;;4991911;28;20030;-50
2021/08/17 05:37:35;;;;;;;7.65;2.80;;;13.90;99.90;;;;;;4990659;28;20018;-48
2021/08/17 05:40:02;;;;;;;7.28;3.08;;;14.00;99.90;;;;;;4991274;28;20030;-49
2021/08/17 05:42:27;;;;;;;7.95;2.65;;;14.00;99.90;;;;;;4991775;28;20412;-55
2021/08/17 05:44:53;;;;;;;13.82;3.80;;;14.00;99.90;;;;;;4991229;28;20037;-47
2021/08/17 05:47:18;;;;;;;11.50;3.72;;;14.00;99.90;;;;;;4990540;28;20033;-50
2021/08/17 05:49:44;;;;;;;10.73;3.90;;;14.00;99.90;;;;;;4991871;28;20027;-48
2021/08/17 05:52:12;;;;;;;8.52;3.25;;;14.00;99.90;;;;;;4991296;28;20027;-54
2021/08/17 05:54:38;;;;;;;9.38;3.20;;;14.00;99.90;;;;;;4991402;28;20046;-49
2021/08/17 05:57:04;;;;;;;10.13;3.40;;;14.10;99.90;;;;;;4991447;28;20515;-52
2021/08/17 05:59:31;;;;;;;13.85;4.00;;;14.10;99.90;;;;;;4995680;28;20026;-51
2021/08/17 06:01:59;;;;;;;12.13;3.33;;;14.10;99.90;;;;;;4991402;28;20523;-48
2021/08/17 06:04:25;;;;;;;14.02;4.50;;;14.00;99.90;;;;;;4990265;28;20030;-49
2021/08/17 06:06:51;;;;;;;13.40;3.35;;;14.10;99.90;;;;;;4991583;28;20109;-50
2021/08/17 06:09:19;;;;;;;13.27;3.60;;;14.10;99.90;;;;;;4989713;28;20165;-49
2021/08/17 06:11:45;;;;;;;15.10;3.88;;;14.10;99.90;;;;;;4991324;28;20061;-49
2021/08/17 06:14:10;;;;;;;7.18;3.70;;;14.20;99.90;;;;;;4991234;28;20542;-50
2021/08/17 06:16:36;;;;;;;11.18;3.72;;;14.20;99.90;;;;;;4990702;28;20033;-51
2021/08/17 06:19:01;;;;;;;10.98;3.25;;;14.30;99.90;;;;;;4991250;28;20030;-48
2021/08/17 06:21:27;;;;;;;12.77;3.75;;;14.30;99.90;;;;;;4990809;28;20038;-52
2021/08/17 06:23:53;;;;;;;12.57;3.35;;;14.40;99.90;;;;;;4991041;28;20164;-50
2021/08/17 06:26:19;;;;;;;12.85;3.45;;;14.50;99.90;;;;;;4990712;28;20397;-53
2021/08/17 06:28:45;;;;;;;14.50;3.67;;;14.50;99.90;;;;;;4989663;28;20026;-49
2021/08/17 06:31:13;;;;;;;13.80;3.42;;;14.60;99.90;;;;;;4990639;28;20030;-50
2021/08/17 06:33:39;;;;;;;11.15;4.20;;;14.70;99.90;;;;;;4990614;28;20011;-48
2021/08/17 06:36:05;;;;;;;11.65;3.88;;;14.80;99.90;;;;;;4990530;28;20030;-49
2021/08/17 06:38:31;;;;;;;10.43;3.25;;;14.90;99.90;;;;;;4990829;28;20022;-52
2021/08/17 06:40:56;;;;;;;13.60;3.83;;;15.00;99.90;;;;;;4990276;28;20032;-50
2021/08/17 06:43:23;;;;;;;11.07;3.42;;;15.10;99.90;;;;;;4990626;28;20691;-50
2021/08/17 06:45:49;;;;;;;11.30;3.40;;;15.20;99.90;;;;;;4990987;28;20022;-52
2021/08/17 06:48:14;;;;;;;10.77;3.00;;;15.20;99.90;;;;;;4989170;28;20362;-52
2021/08/17 06:50:40;;;;;;;13.93;3.70;;;15.20;99.90;;;;;;4989199;28;20109;-53
2021/08/17 06:53:06;;;;;;;12.23;3.17;;;15.30;99.90;;;;;;4989410;28;20037;-50
2021/08/17 06:55:31;;;;;;;11.70;3.00;;;15.30;99.90;;;;;;4989833;28;20425;-51
2021/08/17 06:57:57;;;;;;;10.05;2.95;;;15.30;99.90;;;;;;4990610;28;20164;-52
2021/08/17 07:00:23;;;;;;;7.47;2.50;;;15.30;99.90;;;;;;4990433;28;20053;-51
2021/08/17 07:02:48;;;;;;;8.55;2.50;;;15.30;99.90;;;;;;4990173;28;20096;-50
2021/08/17 07:05:14;;;;;;;11.95;3.58;;;15.30;99.90;;;;;;4988954;28;20425;-54
2021/08/17 07:07:39;;;;;;;6.75;2.50;;;15.30;99.90;;;;;;4990124;28;20030;-50
2021/08/17 07:10:05;;;;;;;5.90;2.65;;;15.30;99.90;;;;;;4990127;28;20027;-52
2021/08/17 07:12:31;;;;;;;6.28;2.80;;;15.40;99.90;;;;;;4980282;28;20523;-50
2021/08/17 07:14:57;;;;;;;9.27;2.67;;;15.40;99.90;;;;;;4976422;28;20087;-50
2021/08/17 07:17:22;;;;;;;7.85;2.25;;;15.50;99.90;;;;;;4974868;28;20049;-52
2021/08/17 07:19:48;;;;;;;9.50;2.60;;;15.50;99.90;;;;;;4976314;28;20027;-54
2021/08/17 07:22:14;;;;;;;9.00;2.63;;;15.60;99.90;;;;;;4983261;28;20041;-50
2021/08/17 07:24:39;;;;;;;9.70;3.17;;;15.50;99.90;;;;;;4988140;28;20025;-51
2021/08/17 07:27:05;;;;;;;10.05;2.97;;;15.60;99.90;;;;;;4988410;28;20490;-49
2021/08/17 07:29:30;;;;;;;9.63;3.05;;;15.60;99.90;;;;;;4988420;28;20023;-52
2021/08/17 07:31:56;;;;;;;6.28;2.80;;;15.80;99.90;;;;;;4987977;28;20034;-51
2021/08/17 07:34:21;;;;;;;10.75;3.60;;;16.00;99.90;;;;;;4986712;28;20030;-50
2021/08/17 07:36:47;;;;;;;9.68;2.40;;;16.20;99.90;;;;;;4987820;28;20034;-49
2021/08/17 07:39:13;;;;;;;9.77;2.75;;;16.40;99.90;;;;;;4988555;28;20014;-54
2021/08/17 07:41:40;;;;;;;6.43;2.17;;;16.40;99.90;;;;;;4989434;28;20518;-48
2021/08/17 07:44:05;;;;;;;8.80;2.47;;;16.40;99.90;;;;;;4989277;28;20030;-52
2021/08/17 07:46:31;;;;;;;10.68;2.78;;;16.30;99.90;;;;;;4988975;28;20044;-52
2021/08/17 07:48:57;;;;;;;12.52;3.50;;;16.20;99.90;;;;;;4989437;28;20392;-53
2021/08/17 07:51:23;;;;;;;10.88;2.28;;;16.20;99.90;;;;;;4989425;28;20591;-49
2021/08/17 07:53:49;;;;;;;11.55;2.60;;;16.10;99.90;;;;;;4989205;28;20018;-48
2021/08/17 07:56:14;;;;;;;8.00;2.28;;;16.00;99.90;;;;;;4987468;28;20400;-50
2021/08/17 07:58:40;;;;;;;10.65;2.85;;;16.00;99.90;;;;;;4989398;28;20018;-48
2021/08/17 08:01:06;;;;;;;7.07;2.28;;;16.10;99.90;;;;;;4987590;28;20403;-52
2021/08/17 08:03:33;;;;;;;7.72;2.50;;;16.30;99.90;;;;;;4989123;28;20041;-53
2021/08/17 08:05:59;;;;;;;10.10;2.15;;;16.50;99.90;;;;;;4987621;28;20026;-47
2021/08/17 08:08:25;;;;;;;6.30;2.22;;;16.60;99.90;;;;;;4989164;28;20117;-48
2021/08/17 08:10:51;;;;;;;7.85;2.42;;;16.50;99.90;;;;;;4988053;28;20033;-48
2021/08/17 08:13:16;;;;;;;6.82;2.10;;;16.50;99.90;;;;;;4989329;28;20022;-48
2021/08/17 08:15:42;;;;;;;3.72;1.50;;;16.50;99.90;;;;;;4988801;28;20027;-51
2021/08/17 08:18:08;;;;;;;4.43;2.53;;;16.50;99.90;;;;;;4988807;28;20022;-50
2021/08/17 08:20:34;;;;;;;6.13;1.90;;;16.30;99.90;;;;;;4990106;28;20022;-48
2021/08/17 08:22:59;;;;;;;5.78;1.95;;;16.30;99.90;;;;;;4987565;28;20053;-49
2021/08/17 08:25:25;;;;;;;6.97;2.28;;;16.10;99.90;;;;;;4987728;28;20026;-50
2021/08/17 08:27:51;;;;;;;5.45;1.85;;;15.90;99.90;;;;;;4988740;28;20022;-49
2021/08/17 08:30:17;;;;;;;8.90;2.58;;;15.70;99.90;;;;;;4988798;28;20117;-48
2021/08/17 08:32:43;;;;;;;5.63;1.98;;;15.60;99.90;;;;;;4987039;28;20718;-46
2021/08/17 08:35:10;;;;;;;5.63;2.25;;;15.50;99.90;;;;;;4987655;28;20106;-48
2021/08/17 08:37:36;;;;;;;7.68;2.78;;;15.50;99.90;;;;;;4988588;28;20520;-49
2021/08/17 08:40:04;;;;;;;5.75;3.08;;;15.40;99.90;;;;;;4988606;28;20030;-51
2021/08/17 08:42:30;;;;;;;2.90;1.95;;;15.40;99.90;;;;;;4989072;28;20495;-50
2021/08/17 08:44:55;;;;;;;6.55;2.03;;;15.40;99.90;;;;;;4987187;28;20034;-47
2021/08/17 08:47:22;;;;;;;5.20;1.95;;;15.40;99.90;;;;;;4988580;28;20030;-47
2021/08/17 08:49:50;;;;;;;4.05;1.40;;;15.40;99.90;;;;;;4988694;28;20041;-51
2021/08/17 08:52:17;;;;;;;6.47;2.17;;;15.30;99.90;;;;;;4988391;28;20029;-51
2021/08/17 08:54:43;;;;;;;6.38;1.90;;;15.40;99.90;;;;;;4988572;28;20361;-47
2021/08/17 08:57:09;;;;;;;5.18;2.10;;;15.40;99.90;;;;;;4987236;28;20010;-48
2021/08/17 08:59:34;;;;;;;6.32;1.98;;;15.40;99.90;;;;;;4982964;28;20058;-50
2021/08/17 09:02:08;;;;;;;7.38;1.85;;;15.40;99.90;;;;;;4971680;28;20437;-50
2021/08/17 09:04:34;;;;;;;7.60;1.83;;;15.40;99.90;;;;;;4971514;28;20026;-49
2021/08/17 09:07:00;;;;;;;4.13;2.10;;;15.40;99.90;;;;;;4970675;28;20369;-50
2021/08/17 09:09:25;;;;;;;7.78;2.33;;;15.40;99.90;;;;;;4983170;28;20026;-52
2021/08/17 09:11:53;;;;;;;7.85;2.88;;;15.30;99.90;;;;;;4986311;28;20061;-49
2021/08/17 09:14:26;;;;;;;5.75;1.95;;;15.40;99.90;;;;;;4982504;28;20073;-49
2021/08/17 09:16:56;;;;;;;5.10;2.00;;;15.40;99.90;;;;;;4985403;28;20385;-50
2021/08/17 09:19:30;;;;;;;5.60;2.35;;;15.40;99.90;;;;;;4987238;28;20098;-54
2021/08/17 09:21:58;;;;;;;5.38;2.00;;;15.40;99.90;;;;;;4980864;28;20397;-51
2021/08/17 09:24:27;;;;;;;2.85;1.40;;;15.30;99.90;;;;;;4973683;28;20076;-53
2021/08/17 09:27:04;;;;;;;2.20;1.90;;;15.40;99.90;;;;;;4987023;28;20033;-52
2021/08/17 09:29:32;;;;;;;3.28;1.45;;;15.40;99.90;;;;;;4981914;28;20358;-49
2021/08/17 09:32:03;;;;;;;3.17;1.20;;;15.50;99.90;;;;;;4988037;28;20034;-50
2021/08/17 09:34:32;;;;;;;2.72;1.25;;;15.40;99.90;;;;;;4986776;28;20060;-53
2021/08/17 09:37:00;;;;;;;3.33;1.20;;;15.40;99.90;;;;;;4986575;28;20513;-48
2021/08/17 09:39:33;;;;;;;3.70;1.15;;;15.40;99.90;;;;;;4982428;28;20022;-50
2021/08/17 09:42:21;;;;;;;3.92;1.38;;;15.40;99.90;;;;;;4993665;28;20574;-49
2021/08/17 09:45:01;;;;;;;4.50;1.40;;;15.50;99.90;;;;;;4988000;28;20709;-48
2021/08/17 09:47:28;;;;;;;3.10;1.20;;;15.40;99.90;;;;;;4987766;28;20019;-48
2021/08/17 09:49:53;;;;;;;1.65;0.75;;;15.40;99.90;;;;;;4990889;28;20588;-47
2021/08/17 09:52:19;;;;;;;4.32;1.40;;;15.40;99.90;;;;;;4990906;28;20105;-50
2021/08/17 09:54:46;;;;;;;4.75;1.50;;;15.50;99.90;;;;;;4988893;28;20030;-49
2021/08/17 09:57:13;;;;;;;4.03;1.45;;;15.50;99.90;;;;;;4991240;28;20085;-49
2021/08/17 09:59:44;;;;;;;4.80;1.80;;;15.60;99.90;;;;;;4984571;28;20019;-49
2021/08/17 10:02:11;;;;;;;2.92;1.63;;;15.70;99.90;;;;;;4989094;28;20099;-49
2021/08/17 10:04:39;;;;;;;5.63;1.80;;;15.80;99.90;;;;;;4985363;28;20117;-50
2021/08/17 10:07:06;;;;;;;5.07;1.40;;;16.00;99.90;;;;;;4990682;28;20108;-52
2021/08/17 10:09:34;;;;;;;4.63;1.77;;;16.00;99.90;;;;;;4989672;28;20018;-51
2021/08/17 10:12:00;;;;;;;7.13;1.80;;;16.10;99.90;;;;;;5000713;28;20484;-52
2021/08/17 10:14:26;;;;;;;7.40;2.22;;;16.30;99.90;;;;;;4988194;28;20014;-51
2021/08/17 10:16:52;;;;;;;5.78;2.50;;;16.50;99.90;;;;;;4981797;28;20437;-51
2021/08/17 10:19:22;;;;;;;4.55;1.80;;;16.70;99.90;;;;;;4975215;28;20027;-49
2021/08/17 10:21:50;;;;;;;5.70;2.17;;;16.60;99.90;;;;;;4972645;28;20042;-49
2021/08/17 10:24:33;;;;;;;6.75;2.45;;;16.60;99.90;;;;;;4974255;28;20022;-46
2021/08/17 10:27:26;;;;;;;7.25;2.33;;;16.50;99.90;;;;;;4988744;28;20022;-48
2021/08/17 10:29:57;;;;;;;6.72;2.47;;;16.20;99.90;;;;;;4988254;28;20077;-47
2021/08/17 10:32:47;;;;;;;11.45;2.63;;;16.10;99.90;;;;;;4990898;28;20441;-50
2021/08/17 10:35:32;;;;;;;5.90;2.33;;;16.00;99.90;;;;;;4989848;28;20057;-47
2021/08/17 10:38:07;;;;;;;9.10;1.88;;;16.00;99.90;;;;;;4990394;28;20038;-49
2021/08/17 10:43:00;;;;;;;5.90;1.63;;;15.90;99.90;;;;;;5009206;23;20085;-46
2021/08/17 10:45:27;;;;;;;7.90;2.90;;;15.90;99.90;;;;;;4989203;28;20050;-48
2021/08/17 10:47:53;;;;;;;7.72;2.42;;;15.80;99.90;;;;;;4990438;28;20462;-45
2021/08/17 10:50:32;;;;;;;17.25;2.58;;;15.70;99.90;;;;;;4989825;28;20101;-47
2021/08/17 10:52:58;;;;;;;5.80;2.17;;;15.60;99.90;;;;;;4990167;28;20026;-47
2021/08/17 10:55:27;;;;;;;6.80;2.15;;;15.60;99.90;;;;;;4989771;28;20477;-46
2021/08/17 10:57:55;;;;;;;5.97;3.20;;;15.40;99.90;;;;;;4990390;28;20026;-51
2021/08/17 11:00:44;;;;;;;3.92;2.30;;;15.40;99.90;;;;;;4989953;28;20026;-50
2021/08/17 11:03:10;;;;;;;7.10;1.70;;;15.30;99.90;;;;;;4990163;28;20034;-49
2021/08/17 11:05:54;;;;;;;3.95;1.40;;;15.20;99.90;;;;;;4991200;28;20113;-51
2021/08/17 11:08:32;;;;;;;7.03;2.50;;;15.10;99.90;;;;;;4989872;28;20389;-49
2021/08/17 11:11:02;;;;;;;9.15;2.03;;;15.10;99.90;;;;;;4989623;28;20029;-50
2021/08/17 11:13:28;;;;;;;6.85;2.08;;;15.00;99.90;;;;;;4989815;28;20105;-48
2021/08/17 11:16:11;;;;;;;6.18;2.15;;;15.00;99.90;;;;;;4990488;28;20061;-48
2021/08/17 11:19:01;;;;;;;7.50;2.50;;;15.00;99.90;;;;;;4989489;28;20022;-50
2021/08/17 11:21:29;;;;;;;6.07;2.50;;;15.00;99.90;;;;;;4988527;28;20019;-48
2021/08/17 11:24:15;;;;;;;5.82;2.47;;;15.00;99.90;;;;;;4990387;28;20026;-48
2021/08/17 11:26:47;;;;;;;5.55;2.03;;;15.00;99.90;;;;;;4989428;28;20040;-50
2021/08/17 11:29:34;;;;;;;5.03;2.30;;;15.10;99.90;;;;;;4989765;28;20030;-46
2021/08/17 11:32:04;;;;;;;7.22;2.90;;;15.00;99.90;;;;;;4987309;28;20030;-48
2021/08/17 11:34:33;;;;;;;5.68;2.00;;;15.00;99.90;;;;;;4988840;28;20101;-51
2021/08/17 11:37:08;;;;;;;5.93;2.53;;;15.00;99.90;;;;;;4988266;28;20026;-47
2021/08/17 11:39:47;;;;;;;6.07;2.15;;;15.00;99.90;;;;;;4989214;28;20023;-48
2021/08/17 11:42:20;;;;;;;7.13;2.78;;;15.00;99.90;;;;;;4988386;28;20470;-50
2021/08/17 11:44:48;;;;;;;4.88;2.85;;;15.00;99.90;;;;;;4989114;28;20565;-48
2021/08/17 11:47:19;;;;;;;7.88;2.92;;;15.00;99.90;;;;;;4989193;28;20022;-49
2021/08/17 11:49:47;;;;;;;5.47;2.75;;;15.00;99.90;;;;;;4989360;28;20068;-47
2021/08/17 11:52:16;;;;;;;10.95;3.20;;;15.00;99.90;;;;;;4988877;28;20486;-48
2021/08/17 11:54:46;;;;;;;9.25;3.20;;;14.90;99.90;;;;;;4989015;28;20225;-48
2021/08/17 11:57:16;;;;;;;10.73;3.17;;;14.90;99.90;;;;;;4989276;28;20023;-51
2021/08/17 11:59:42;;;;;;;7.72;2.30;;;14.90;99.90;;;;;;4987815;28;20121;-49
2021/08/17 12:02:09;;;;;;;8.40;2.65;;;14.90;99.90;;;;;;4988865;28;20017;-48
2021/08/17 12:04:35;;;;;;;7.80;3.08;;;14.90;99.90;;;;;;4988567;28;20056;-49
2021/08/17 12:07:08;;;;;;;4.90;2.88;;;14.90;99.90;;;;;;4987815;28;20030;-47
2021/08/17 12:09:53;;;;;;;5.18;2.70;;;14.80;99.90;;;;;;4977818;28;20029;-47
2021/08/17 12:12:40;;;;;;;7.22;2.30;;;14.80;99.90;;;;;;4989049;28;20169;-47
2021/08/17 12:15:10;;;;;;;3.70;2.33;;;14.80;99.90;;;;;;4986979;28;20086;-48
2021/08/17 12:17:35;;;;;;;7.25;2.60;;;14.80;99.90;;;;;;4988569;28;20018;-50
2021/08/17 12:20:05;;;;;;;6.57;2.33;;;14.80;99.90;;;;;;4988481;28;20026;-47
2021/08/17 12:22:33;;;;;;;4.25;2.33;;;14.80;99.90;;;;;;4989415;28;20018;-49
2021/08/17 12:24:58;;;;;;;6.47;2.92;;;14.80;99.90;;;;;;4988300;28;20034;-49
2021/08/17 12:27:28;;;;;;;4.50;3.05;;;14.80;99.90;;;;;;4988539;28;20026;-50
2021/08/17 12:29:55;;;;;;;4.88;2.60;;;14.80;99.90;;;;;;4976656;28;20101;-50
2021/08/17 12:32:25;;;;;;;7.50;3.42;;;14.80;99.90;;;;;;4974743;28;20117;-48
2021/08/17 12:34:52;;;;;;;7.10;3.08;;;14.80;99.90;;;;;;4975612;28;20073;-48
2021/08/17 12:37:28;;;;;;;6.55;2.78;;;14.80;99.90;;;;;;4978517;28;20739;-49
2021/08/17 12:39:55;;;;;;;6.72;3.40;;;14.80;99.90;;;;;;4988247;28;20033;-47
2021/08/17 12:42:21;;;;;;;6.32;3.80;;;14.70;99.90;;;;;;4988208;28;20030;-47
2021/08/17 12:44:48;;;;;;;7.53;2.80;;;14.80;99.90;;;;;;4988071;28;20048;-48
2021/08/17 12:47:19;;;;;;;10.45;3.92;;;14.70;99.90;;;;;;4988426;28;20029;-48
2021/08/17 12:50:07;;;;;;;8.07;3.83;;;14.70;99.90;;;;;;4988178;28;20026;-48